Time;durP1;ratioP1;P1;durP2;ratioP2;P2;SDS_P1;SDS_P2;PMS_P1;PMS_P2;Temp;Humidity;BMP_temperature;BMP_pressure;BME280_temperature;BME280_humidity;BME280_pressure;Samples;Min_cycle;Max_cycle;Signal;HPM_P1;HPM_P2
2024/01/30 00:02:11;;;;;;;;;7.25;7.25;;;;;-146.67;39.59;75616.09;5083844;28;61740;-78
2024/01/30 00:04:36;;;;;;;;;9.25;9.25;;;;;-146.67;39.66;75632.06;5064241;28;64803;-78
2024/01/30 00:07:01;;;;;;;;;10.50;9.00;;;;;-146.67;39.67;75624.06;5083498;28;62176;-78
2024/01/30 00:09:27;;;;;;;;;13.00;11.50;;;;;-146.67;39.70;75626.06;5082607;28;61936;-78
2024/01/30 00:11:52;;;;;;;;;10.00;9.00;;;;;-146.67;39.61;75624.06;5083094;28;61953;-78
2024/01/30 00:14:18;;;;;;;;;12.25;10.75;;;;;-146.67;39.58;75620.06;5082912;28;61914;-78
2024/01/30 00:16:43;;;;;;;;;10.25;8.25;;;;;-146.67;39.68;75620.06;5065128;28;61951;-78
2024/01/30 00:19:09;;;;;;;;;9.00;7.25;;;;;-146.67;39.61;75620.06;5083150;28;61760;-78
2024/01/30 00:21:34;;;;;;;;;18.25;13.00;;;;;-146.67;39.60;75620.06;5063970;28;61909;-78
2024/01/30 00:23:59;;;;;;;;;11.25;9.00;;;;;-146.67;39.69;75622.06;5082448;28;62906;-78
2024/01/30 00:26:25;;;;;;;;;13.75;9.75;;;;;-146.67;39.71;75620.06;5082911;28;61864;-78
2024/01/30 00:28:50;;;;;;;;;13.75;11.00;;;;;-146.67;39.61;75624.06;5081704;28;61830;-78
2024/01/30 00:31:16;;;;;;;;;16.00;11.00;;;;;-146.67;39.66;75630.06;5083366;28;61804;-78
2024/01/30 00:33:41;;;;;;;;;15.50;11.50;;;;;-146.67;39.66;75634.06;5082072;28;62891;-78
2024/01/30 00:36:08;;;;;;;;;11.50;11.50;;;;;-146.67;39.71;75634.06;5083225;28;61823;-78
2024/01/30 00:38:34;;;;;;;;;18.50;13.25;;;;;-146.67;39.69;75640.03;5082242;28;62015;-78
2024/01/30 00:40:59;;;;;;;;;13.25;11.50;;;;;-146.67;39.91;75640.03;5064546;28;62132;-78
2024/01/30 00:43:25;;;;;;;;;10.50;9.25;;;;;-146.67;39.75;75642.03;5080237;28;63736;-78
2024/01/30 00:45:51;;;;;;;;;16.75;12.25;;;;;-146.67;39.94;75650.03;5082615;28;61866;-78
2024/01/30 00:48:17;;;;;;;;;18.25;14.00;;;;;-146.67;39.94;75648.03;5082183;28;61956;-78
2024/01/30 00:50:42;;;;;;;;;13.50;13.50;;;;;-146.67;39.95;75650.03;5064270;28;61960;-78
2024/01/30 00:53:08;;;;;;;;;16.75;12.75;;;;;-146.67;39.76;75630.06;5063479;28;63678;-78
2024/01/30 00:55:33;;;;;;;;;15.75;15.50;;;;;-146.67;39.82;75634.06;5064406;28;61715;-78
2024/01/30 00:57:58;;;;;;;;;14.75;13.75;;;;;-146.67;39.86;75660.00;5067800;28;62026;-78
2024/01/30 01:00:28;;;;;;;;;14.50;12.50;;;;;-146.67;40.15;75666.00;5064519;28;61853;-78
2024/01/30 01:02:54;;;;;;;;;19.25;16.75;;;;;-146.67;40.17;75666.00;5081905;28;61847;-78
2024/01/30 01:05:20;;;;;;;;;16.00;14.00;;;;;-146.67;40.24;75664.00;5082107;28;61949;-78
2024/01/30 01:07:47;;;;;;;;;14.00;12.25;;;;;-146.67;40.24;75672.00;5063488;28;61871;-78
2024/01/30 01:10:13;;;;;;;;;22.00;17.00;;;;;-146.67;40.22;75678.00;5064406;28;62079;-78
2024/01/30 01:12:39;;;;;;;;;19.25;14.50;;;;;-146.67;40.29;75681.97;5081177;28;61729;-78
2024/01/30 01:15:05;;;;;;;;;18.50;12.75;;;;;-146.67;40.38;75683.97;5082471;28;61808;-78
2024/01/30 01:17:30;;;;;;;;;17.00;15.50;;;;;-146.67;40.39;75685.97;5082555;28;61904;-78
2024/01/30 01:19:55;;;;;;;;;18.50;14.50;;;;;-146.67;40.41;75683.97;5063884;28;62425;-78
2024/01/30 01:22:21;;;;;;;;;14.00;13.25;;;;;-146.67;40.42;75687.97;5062959;28;63711;-78
2024/01/30 01:24:46;;;;;;;;;18.75;15.50;;;;;-146.67;40.33;75668.00;5082207;28;61960;-78
2024/01/30 01:27:11;;;;;;;;;16.00;13.25;;;;;-146.67;40.42;75674.00;5064010;28;61842;-77
2024/01/30 01:29:37;;;;;;;;;17.50;16.25;;;;;-146.67;40.42;75676.00;5064079;28;61863;-78
2024/01/30 01:32:03;;;;;;;;;20.25;15.50;;;;;-146.67;40.36;75678.00;5081152;28;62084;-78
2024/01/30 01:34:28;;;;;;;;;20.75;19.00;;;;;-146.67;40.47;75683.97;5066736;28;62000;-78
2024/01/30 01:36:55;;;;;;;;;24.50;14.00;;;;;-146.67;40.49;75685.97;5084924;28;61878;-78
2024/01/30 01:39:20;;;;;;;;;16.50;14.75;;;;;-146.67;40.50;75676.00;5085688;28;61842;-78
2024/01/30 01:41:46;;;;;;;;;15.25;12.50;;;;;-146.67;40.42;75670.00;5066007;28;63525;-78
2024/01/30 01:44:11;;;;;;;;;14.00;13.25;;;;;-146.67;40.47;75670.00;5067129;28;61992;-78
2024/01/30 01:46:37;;;;;;;;;19.00;14.75;;;;;-146.67;40.45;75676.00;5085690;28;61802;-78
2024/01/30 01:49:05;;;;;;;;;19.75;15.00;;;;;-146.67;40.54;75678.00;5083856;28;61933;-78
2024/01/30 01:51:33;;;;;;;;;12.50;10.75;;;;;-146.67;40.54;75681.97;5084647;28;65205;-78
2024/01/30 01:54:01;;;;;;;;;13.50;11.00;;;;;-146.67;40.57;75681.97;5067011;28;61790;-78
2024/01/30 01:56:29;;;;;;;;;22.00;14.00;;;;;-146.67;40.63;75685.97;5067154;28;61883;-78
2024/01/30 01:58:55;;;;;;;;;14.75;14.75;;;;;-146.67;40.75;75687.97;5085564;28;61870;-78
2024/01/30 02:01:21;;;;;;;;;16.75;13.50;;;;;-146.67;40.74;75697.97;5084858;28;63035;-78
2024/01/30 02:03:47;;;;;;;;;16.25;11.25;;;;;-146.67;40.84;75703.94;5085078;28;61946;-78
2024/01/30 02:06:16;;;;;;;;;13.00;11.50;;;;;-146.67;40.75;75703.94;5085240;28;62287;-78
2024/01/30 02:08:42;;;;;;;;;16.00;13.75;;;;;-146.67;40.83;75695.97;5085615;28;62097;-79
2024/01/30 02:11:08;;;;;;;;;19.25;12.50;;;;;-146.67;40.77;75699.94;5084547;28;61929;-79
2024/01/30 02:13:34;;;;;;;;;19.00;13.00;;;;;-146.67;40.80;75695.97;5084684;28;61688;-79
2024/01/30 02:15:59;;;;;;;;;17.50;11.50;;;;;-146.67;40.75;75691.97;5084934;28;61983;-78
2024/01/30 02:18:26;;;;;;;;;19.50;12.50;;;;;-146.67;40.78;75693.97;5085324;28;61738;-78
2024/01/30 02:20:53;;;;;;;;;11.75;11.75;;;;;-146.67;40.70;75681.97;5065827;28;63611;-78
2024/01/30 02:23:20;;;;;;;;;19.00;12.50;;;;;-146.67;40.64;75685.97;5084847;28;62022;-79
2024/01/30 02:25:45;;;;;;;;;15.50;13.50;;;;;-146.67;40.89;75695.97;5066674;28;61888;-78
2024/01/30 02:28:12;;;;;;;;;17.00;10.00;;;;;-146.67;40.89;75695.97;5084864;28;61867;-78
2024/01/30 02:30:38;;;;;;;;;13.75;12.50;;;;;-146.67;40.84;75701.94;5084362;28;61841;-78
2024/01/30 02:33:04;;;;;;;;;20.75;13.25;;;;;-146.67;40.93;75705.94;5084899;28;62184;-79
2024/01/30 02:35:29;;;;;;;;;14.25;13.50;;;;;-146.67;40.99;75717.94;5066126;28;61941;-78
2024/01/30 02:37:54;;;;;;;;;13.75;9.75;;;;;-146.67;40.98;75713.94;5084981;28;61831;-78
2024/01/30 02:40:20;;;;;;;;;11.25;9.25;;;;;-146.67;41.01;75715.94;5065399;28;63870;-78
2024/01/30 02:42:45;;;;;;;;;15.00;13.00;;;;;-146.67;41.20;75719.94;5084060;28;61743;-78
2024/01/30 02:45:11;;;;;;;;;11.25;10.50;;;;;-146.67;41.09;75727.91;5083713;28;61819;-78
2024/01/30 02:47:36;;;;;;;;;10.25;9.50;;;;;-146.67;41.21;75727.91;5085007;28;61883;-78
2024/01/30 02:50:02;;;;;;;;;10.00;9.00;;;;;-146.67;41.16;75731.91;5065137;28;64565;-78
2024/01/30 02:52:27;;;;;;;;;12.50;10.50;;;;;-146.67;41.03;75707.94;5084308;28;61818;-78
2024/01/30 02:54:53;;;;;;;;;14.00;10.25;;;;;-146.67;40.95;75707.94;5084714;28;61858;-78
2024/01/30 02:57:18;;;;;;;;;14.00;10.75;;;;;-146.67;41.20;75723.91;5084429;28;61870;-78
2024/01/30 02:59:43;;;;;;;;;15.00;9.00;;;;;-146.67;41.33;75731.91;5083999;28;62760;-78
2024/01/30 03:02:09;;;;;;;;;10.75;9.50;;;;;-146.67;41.35;75733.91;5084200;28;61870;-78
2024/01/30 03:04:34;;;;;;;;;14.75;11.00;;;;;-146.67;41.35;75739.91;5065261;28;61882;-78
2024/01/30 03:06:59;;;;;;;;;14.75;13.50;;;;;-146.67;41.45;75743.88;5066387;28;62025;-79
2024/01/30 03:09:25;;;;;;;;;12.00;9.25;;;;;-146.67;41.37;75745.88;5065513;28;65075;-78
2024/01/30 03:11:50;;;;;;;;;11.75;9.00;;;;;-146.67;41.35;75755.88;5065353;28;61989;-78
2024/01/30 03:14:15;;;;;;;;;13.25;11.75;;;;;-146.67;41.43;75749.88;5082808;28;61993;-78
2024/01/30 03:16:41;;;;;;;;;13.25;12.00;;;;;-146.67;41.64;75747.88;5084699;28;62004;-79
2024/01/30 03:19:09;;;;;;;;;14.25;9.25;;;;;-146.67;41.54;75749.88;5083157;28;63070;-78
2024/01/30 03:21:35;;;;;;;;;12.50;10.50;;;;;-146.67;41.62;75751.88;5065871;28;61777;-79
2024/01/30 03:24:00;;;;;;;;;10.00;10.00;;;;;-146.67;41.43;75749.88;5084030;28;61773;-78
2024/01/30 03:26:25;;;;;;;;;10.75;10.00;;;;;-146.67;41.62;75763.88;5084096;28;61836;-78
2024/01/30 03:28:51;;;;;;;;;9.75;8.75;;;;;-146.67;41.71;75767.84;5083629;28;61657;-78
2024/01/30 03:31:16;;;;;;;;;8.50;8.50;;;;;-146.67;41.78;75769.84;5082504;28;61863;-78
2024/01/30 03:33:42;;;;;;;;;12.50;12.50;;;;;-146.67;41.96;75763.88;5065472;28;61962;-79
2024/01/30 03:36:08;;;;;;;;;11.00;8.50;;;;;-146.67;41.79;75759.88;5083764;28;61739;-79
2024/01/30 03:38:34;;;;;;;;;10.00;10.00;;;;;-146.67;41.74;75767.84;5064900;28;63856;-78
2024/01/30 03:41:00;;;;;;;;;8.00;7.50;;;;;-146.67;41.77;75761.88;5065453;28;61854;-78
2024/01/30 03:43:25;;;;;;;;;9.25;8.00;;;;;-146.67;41.76;75767.84;5083140;28;61771;-78
2024/01/30 03:45:51;;;;;;;;;6.75;6.75;;;;;-146.67;41.89;75771.84;5084051;28;61778;-79
2024/01/30 03:48:16;;;;;;;;;9.50;9.50;;;;;-146.67;41.90;75755.88;5064100;28;64937;-78
2024/01/30 03:50:41;;;;;;;;;10.00;8.00;;;;;-146.67;41.88;75761.88;5083484;28;61835;-78
2024/01/30 03:53:07;;;;;;;;;10.25;8.25;;;;;-146.67;41.96;75759.88;5083811;28;62094;-78
2024/01/30 03:55:33;;;;;;;;;8.50;7.00;;;;;-146.67;42.15;75763.88;5065425;28;61774;-78
2024/01/30 03:57:58;;;;;;;;;10.75;9.25;;;;;-146.67;42.11;75757.88;5081555;28;64767;-78
2024/01/30 04:00:24;;;;;;;;;11.50;8.50;;;;;-146.67;42.17;75749.88;5083388;28;61888;-78
2024/01/30 04:02:51;;;;;;;;;6.75;6.50;;;;;-146.67;42.10;75751.88;5083263;28;61733;-78
2024/01/30 04:05:16;;;;;;;;;7.25;7.00;;;;;-146.67;42.13;75753.88;5083505;28;62228;-79
2024/01/30 04:07:41;;;;;;;;;11.00;8.25;;;;;-146.67;42.14;75753.88;5082675;28;62980;-79
2024/01/30 04:10:07;;;;;;;;;9.00;8.00;;;;;-146.67;42.28;75749.88;5083542;28;61878;-78
2024/01/30 04:12:33;;;;;;;;;11.50;9.00;;;;;-146.67;42.25;75749.88;5064236;28;61942;-78
2024/01/30 04:14:58;;;;;;;;;8.00;8.00;;;;;-146.67;42.39;75755.88;5082143;28;61758;-78
2024/01/30 04:17:23;;;;;;;;;12.75;8.00;;;;;-146.67;42.24;75761.88;5081059;28;63440;-78
2024/01/30 04:19:49;;;;;;;;;10.00;10.00;;;;;-146.67;42.26;75751.88;5083042;28;61918;-78
2024/01/30 04:22:14;;;;;;;;;9.50;7.75;;;;;-146.67;42.21;75761.88;5083382;28;61930;-78
2024/01/30 04:24:39;;;;;;;;;6.50;6.50;;;;;-146.67;42.35;75769.84;5083341;28;62024;-78
2024/01/30 04:27:05;;;;;;;;;9.25;9.00;;;;;-146.67;42.19;75763.88;5064276;28;63618;-78
2024/01/30 04:29:32;;;;;;;;;15.50;10.75;;;;;-146.67;42.34;75753.88;5081607;28;61826;-78
2024/01/30 04:31:57;;;;;;;;;10.00;10.00;;;;;-146.67;42.24;75755.88;5064684;28;61836;-78
2024/01/30 04:34:22;;;;;;;;;9.50;9.50;;;;;-146.67;42.18;75751.88;5064937;28;61858;-78
2024/01/30 04:36:48;;;;;;;;;11.50;11.00;;;;;-146.67;42.23;75751.88;5080974;28;63620;-78
2024/01/30 04:39:13;;;;;;;;;10.00;10.00;;;;;-146.67;42.45;75761.88;5082767;28;62016;-78
2024/01/30 04:41:38;;;;;;;;;5.50;4.50;;;;;-146.67;42.48;75777.84;5082167;28;62074;-78
2024/01/30 04:44:04;;;;;;;;;9.75;8.75;;;;;-146.67;42.51;75775.84;5083141;28;61915;-78
2024/01/30 04:46:29;;;;;;;;;9.00;9.00;;;;;-146.67;42.42;75763.88;5081974;28;62830;-78
2024/01/30 04:48:54;;;;;;;;;10.75;9.00;;;;;-146.67;42.42;75765.84;5081458;28;61952;-78
2024/01/30 04:51:20;;;;;;;;;8.50;6.25;;;;;-146.67;42.62;75765.84;5082793;28;62131;-78
2024/01/30 04:53:45;;;;;;;;;9.25;9.00;;;;;-146.67;42.52;75769.84;5082707;28;61899;-78
2024/01/30 04:56:10;;;;;;;;;10.75;9.50;;;;;-146.67;42.42;75763.88;5080772;28;63449;-78
2024/01/30 04:58:36;;;;;;;;;12.25;10.25;;;;;-146.67;42.42;75765.84;5081133;28;61762;-78
2024/01/30 05:01:02;;;;;;;;;8.75;7.75;;;;;-146.67;42.30;75753.88;5082461;28;61818;-78
2024/01/30 05:03:27;;;;;;;;;12.25;9.75;;;;;-146.67;42.31;75751.88;5064045;28;62004;-78
2024/01/30 05:05:53;;;;;;;;;10.50;8.50;;;;;-146.67;42.31;75771.84;5081580;28;61997;-78
2024/01/30 05:08:18;;;;;;;;;12.00;9.25;;;;;-146.67;42.33;75767.84;5063666;28;61762;-79
2024/01/30 05:10:44;;;;;;;;;13.00;8.00;;;;;-146.67;42.28;75747.88;5082493;28;61649;-78
2024/01/30 05:13:10;;;;;;;;;10.00;8.00;;;;;-146.67;42.23;75753.88;5063894;28;62055;-78
2024/01/30 05:15:35;;;;;;;;;11.25;8.75;;;;;-146.67;42.32;75763.88;5081648;28;62974;-78
2024/01/30 05:18:00;;;;;;;;;8.00;7.00;;;;;-146.67;42.46;75775.84;5063866;28;61784;-78
2024/01/30 05:20:27;;;;;;;;;7.50;7.50;;;;;-146.67;42.49;75769.84;5082288;28;62415;-78
2024/01/30 05:22:53;;;;;;;;;9.50;5.00;;;;;-146.67;42.46;75769.84;5064282;28;62273;-79
2024/01/30 05:25:18;;;;;;;;;11.00;8.00;;;;;-146.67;42.38;75761.88;5081727;28;62961;-78
2024/01/30 05:27:44;;;;;;;;;8.50;7.75;;;;;-146.67;42.35;75755.88;5080784;28;61757;-78
2024/01/30 05:30:10;;;;;;;;;12.50;9.00;;;;;-146.67;42.35;75761.88;5082028;28;61691;-78
2024/01/30 05:32:35;;;;;;;;;9.50;9.00;;;;;-146.67;42.33;75765.84;5064010;28;61747;-78
2024/01/30 05:35:01;;;;;;;;;10.50;10.50;;;;;-146.67;42.38;75775.84;5081289;28;62798;-78
2024/01/30 05:37:26;;;;;;;;;8.25;8.25;;;;;-146.67;42.46;75769.84;5081792;28;61782;-78
2024/01/30 05:39:51;;;;;;;;;12.00;7.00;;;;;-146.67;42.49;75765.84;5081898;27;62439;-78
2024/01/30 05:42:17;;;;;;;;;8.75;8.75;;;;;-146.67;42.38;75765.84;5080913;28;62057;-78
2024/01/30 05:44:42;;;;;;;;;8.50;8.50;;;;;-146.67;42.48;75773.84;5079679;28;63455;-78
2024/01/30 05:47:08;;;;;;;;;9.25;8.00;;;;;-146.67;42.43;75769.84;5063492;28;62153;-78
2024/01/30 05:49:33;;;;;;;;;12.75;8.75;;;;;-146.67;42.41;75771.84;5063208;28;62005;-78
2024/01/30 05:51:58;;;;;;;;;9.75;8.75;;;;;-146.67;42.46;75767.84;5081990;28;61886;-78
2024/01/30 05:54:24;;;;;;;;;8.00;7.00;;;;;-146.67;42.32;75769.84;5081253;28;62000;-78
2024/01/30 05:56:49;;;;;;;;;11.00;8.75;;;;;-146.67;42.35;75773.84;5081856;28;61984;-78
2024/01/30 05:59:14;;;;;;;;;10.25;9.00;;;;;-146.67;42.39;75769.84;5063539;28;62043;-78
2024/01/30 06:01:47;;;;;;;;;11.00;8.00;;;;;-146.67;42.28;75771.84;5081916;28;61798;-79
2024/01/30 06:04:13;;;;;;;;;11.00;9.00;;;;;-146.67;42.32;75771.84;5080677;28;62996;-78
2024/01/30 06:06:38;;;;;;;;;10.75;8.75;;;;;-146.67;42.26;75771.84;5081776;28;61915;-78
2024/01/30 06:09:04;;;;;;;;;11.50;8.25;;;;;-146.67;42.34;75775.84;5063217;28;61813;-78
2024/01/30 06:11:29;;;;;;;;;12.00;9.00;;;;;-146.67;42.24;75777.84;5080966;28;61896;-78
2024/01/30 06:13:54;;;;;;;;;9.50;9.25;;;;;-146.67;42.36;75785.81;5061605;28;64664;-78
2024/01/30 06:16:21;;;;;;;;;8.25;8.25;;;;;-146.67;42.36;75779.84;5080798;28;61848;-78
2024/01/30 06:18:47;;;;;;;;;10.50;10.25;;;;;-146.67;42.06;75773.84;5062768;28;62060;-78
2024/01/30 06:21:13;;;;;;;;;13.00;9.75;;;;;-146.67;42.38;75781.84;5065506;28;61810;-78
2024/01/30 06:23:38;;;;;;;;;11.00;8.00;;;;;-146.67;42.36;75779.84;5083974;28;61824;-78
2024/01/30 06:26:04;;;;;;;;;10.00;10.00;;;;;-146.67;42.38;75783.84;5084816;28;61802;-78
2024/01/30 06:28:30;;;;;;;;;9.00;8.00;;;;;-146.67;42.43;75793.81;5084343;28;62391;-78
2024/01/30 06:31:04;;;;;;;;;8.25;5.75;;;;;-146.67;42.35;75787.81;5084949;28;61849;-78
2024/01/30 06:33:31;;;;;;;;;13.00;8.75;;;;;-146.67;42.45;75791.81;5065346;28;63192;-78
2024/01/30 06:35:57;;;;;;;;;10.75;8.50;;;;;-146.67;42.32;75791.81;5080695;28;61960;-79
2024/01/30 06:38:22;;;;;;;;;12.00;10.50;;;;;-146.67;42.36;75793.81;5090266;27;61951;-79
2024/01/30 06:40:47;;;;;;;;;11.75;6.50;;;;;-146.67;42.27;75781.84;5069471;28;62396;-77
2024/01/30 06:43:13;;;;;;;;;12.00;8.75;;;;;-146.67;42.29;75779.84;5081535;27;61892;-81
2024/01/30 06:45:38;;;;;;;;;10.75;8.75;;;;;-146.67;42.24;75779.84;5083463;27;61811;-78
2024/01/30 06:48:04;;;;;;;;;15.00;9.50;;;;;-146.67;42.26;75771.84;5083425;28;62003;-79
2024/01/30 06:50:29;;;;;;;;;9.50;7.50;;;;;-146.67;42.12;75781.84;5083107;28;62115;-78
2024/01/30 06:52:56;;;;;;;;;11.00;9.50;;;;;-146.67;42.32;75779.84;5083472;28;62022;-78
2024/01/30 06:55:21;;;;;;;;;13.00;11.25;;;;;-146.67;42.29;75757.88;5081831;27;62016;-77
2024/01/30 06:57:46;;;;;;;;;12.75;10.00;;;;;-146.67;42.16;75759.88;5083348;27;61925;-77
2024/01/30 07:00:13;;;;;;;;;10.50;9.50;;;;;-146.67;42.10;75745.88;5075549;28;61989;-77
2024/01/30 07:02:38;;;;;;;;;18.50;13.25;;;;;-146.67;42.04;75741.91;5081235;28;61945;-77
2024/01/30 07:05:04;;;;;;;;;14.50;11.50;;;;;-146.67;42.16;75755.88;5075153;28;61890;-77
2024/01/30 07:07:29;;;;;;;;;17.25;11.25;;;;;-146.67;42.13;75751.88;5075541;28;61820;-77
2024/01/30 07:09:58;;;;;;;;;14.25;12.25;;;;;-146.67;42.14;75751.88;5094035;27;61850;-78
2024/01/30 07:12:25;;;;;;;;;12.00;8.00;;;;;-146.67;42.23;75749.88;5071901;28;63928;-78
2024/01/30 07:14:51;;;;;;;;;19.00;9.75;;;;;-146.67;42.18;75749.88;5083608;27;61890;-78
2024/01/30 07:17:16;;;;;;;;;12.75;10.00;;;;;-146.67;42.22;75767.84;5085277;27;62264;-78
2024/01/30 07:19:41;;;;;;;;;10.00;10.00;;;;;-146.67;42.28;75771.84;5065855;28;61893;-78
2024/01/30 07:22:07;;;;;;;;;10.50;9.75;;;;;-146.67;42.43;75767.84;5083292;27;62724;-78
2024/01/30 07:24:33;;;;;;;;;11.50;9.75;;;;;-146.67;42.29;75767.84;5083250;28;61842;-78
2024/01/30 07:26:58;;;;;;;;;14.25;11.00;;;;;-146.67;42.28;75763.88;5084128;28;62043;-78
2024/01/30 07:29:23;;;;;;;;;14.75;11.50;;;;;-146.67;42.24;75763.88;5065823;28;62146;-78
2024/01/30 07:31:49;;;;;;;;;11.25;11.25;;;;;-146.67;42.40;75767.84;5081660;28;64619;-78
2024/01/30 07:34:14;;;;;;;;;12.50;9.75;;;;;-146.67;42.32;75773.84;5065053;28;62010;-82
2024/01/30 07:36:40;;;;;;;;;12.25;10.50;;;;;-146.67;42.24;75773.84;5065315;28;61994;-81
2024/01/30 07:39:05;;;;;;;;;16.50;12.50;;;;;-146.67;42.18;75771.84;5083059;28;61882;-78
2024/01/30 07:41:30;;;;;;;;;9.50;9.50;;;;;-146.67;42.31;75777.84;5063775;28;63619;-78
2024/01/30 07:43:56;;;;;;;;;13.50;10.00;;;;;-146.67;42.26;75765.84;5083418;28;61997;-79
2024/01/30 07:46:21;;;;;;;;;14.25;11.50;;;;;-146.67;42.22;75755.88;5065607;28;61828;-80
2024/01/30 07:48:46;;;;;;;;;14.00;11.00;;;;;-146.67;42.09;75763.88;5083096;27;61879;-85
2024/01/30 07:51:12;;;;;;;;;14.75;11.00;;;;;-146.67;42.15;75757.88;5082230;28;61915;-80
2024/01/30 07:53:37;;;;;;;;;18.75;12.50;;;;;-146.67;42.25;75767.84;5078590;28;61739;-81
2024/01/30 07:56:03;;;;;;;;;16.50;12.25;;;;;-146.67;42.30;75773.84;5082841;27;61970;-81
2024/01/30 07:58:28;;;;;;;;;15.75;11.00;;;;;-146.67;42.33;75767.84;5083860;27;62132;-80
2024/01/30 08:00:54;;;;;;;;;17.25;13.00;;;;;-146.67;42.36;75773.84;5072455;28;64729;-81
2024/01/30 08:03:19;;;;;;;;;13.75;12.25;;;;;-146.67;42.02;75755.88;5089573;27;62020;-81
2024/01/30 08:05:45;;;;;;;;;16.50;13.75;;;;;-146.67;42.19;75761.88;5081299;27;61923;-79
2024/01/30 08:08:11;;;;;;;;;19.25;18.50;;;;;-146.67;42.06;75755.88;5089062;27;61909;-80
2024/01/30 08:10:36;;;;;;;;;17.00;15.00;;;;;-146.67;42.01;75755.88;5072124;28;63451;-80
2024/01/30 08:13:02;;;;;;;;;19.75;18.00;;;;;-146.67;42.04;75757.88;5069619;28;62073;-81
2024/01/30 08:15:27;;;;;;;;;11.00;9.25;;;;;-146.67;42.02;75759.88;5089867;27;61844;-81
2024/01/30 08:17:57;;;;;;;;;17.50;15.25;;;;;-146.67;41.95;75763.88;5064484;28;61901;-81
2024/01/30 08:20:25;;;;;;;;;16.00;12.75;;;;;-146.67;41.98;75763.88;5081851;28;61849;-80
2024/01/30 08:22:51;;;;;;;;;14.25;11.75;;;;;-146.67;42.07;75763.88;5063749;28;61899;-80
2024/01/30 08:25:16;;;;;;;;;10.25;9.25;;;;;-146.67;41.93;75761.88;5082797;28;61867;-81
2024/01/30 08:27:42;;;;;;;;;18.00;11.00;;;;;-146.67;42.07;75765.84;5081098;28;61846;-81
2024/01/30 08:30:08;;;;;;;;;12.00;11.00;;;;;-146.67;41.91;75765.84;5067569;28;63478;-80
2024/01/30 08:32:33;;;;;;;;;12.50;11.75;;;;;-146.67;41.97;75767.84;5082681;27;62111;-81
2024/01/30 08:34:59;;;;;;;;;12.75;11.50;;;;;-146.67;42.01;75779.84;5082947;27;61733;-81
2024/01/30 08:37:25;;;;;;;;;16.50;10.50;;;;;-146.67;42.06;75781.84;5081553;28;62167;-81
2024/01/30 08:39:50;;;;;;;;;15.00;10.25;;;;;-146.67;42.16;75787.81;5081668;27;61849;-81
2024/01/30 08:42:18;;;;;;;;;12.50;10.00;;;;;-146.67;42.08;75775.84;5063164;28;61867;-81
2024/01/30 08:44:43;;;;;;;;;11.50;10.50;;;;;-146.67;42.10;75787.81;5063857;28;61758;-80
2024/01/30 08:47:09;;;;;;;;;14.00;13.00;;;;;-146.67;42.25;75787.81;5083056;27;61829;-81
2024/01/30 08:49:34;;;;;;;;;15.75;13.00;;;;;-146.67;42.13;75785.81;5080398;27;64576;-81
2024/01/30 08:52:00;;;;;;;;;14.50;11.00;;;;;-146.67;42.13;75793.81;5082263;28;61952;-80
2024/01/30 08:54:25;;;;;;;;;15.75;12.75;;;;;-146.67;42.26;75793.81;5082368;28;61771;-80
2024/01/30 08:56:52;;;;;;;;;16.25;12.25;;;;;-146.67;42.36;75791.81;5082495;28;61812;-80
2024/01/30 08:59:17;;;;;;;;;20.25;12.00;;;;;-146.67;42.13;75789.81;5081831;28;62839;-81
2024/01/30 09:01:43;;;;;;;;;16.50;11.25;;;;;-146.67;42.12;75791.81;5063501;28;61841;-81
2024/01/30 09:04:08;;;;;;;;;15.50;13.75;;;;;-146.67;42.35;75809.78;5063948;28;61985;-81
2024/01/30 09:06:33;;;;;;;;;19.00;15.00;;;;;-146.67;42.43;75821.78;5063606;28;62097;-80
2024/01/30 09:08:59;;;;;;;;;14.00;11.25;;;;;-146.67;42.35;75811.78;5063414;28;64009;-81
2024/01/30 09:11:24;;;;;;;;;18.25;14.25;;;;;-146.67;42.29;75805.81;5063801;28;61831;-80
2024/01/30 09:13:50;;;;;;;;;11.75;10.75;;;;;-146.67;42.36;75821.78;5082001;28;61918;-80
2024/01/30 09:16:16;;;;;;;;;19.50;13.25;;;;;-146.67;42.43;75833.75;5082552;28;61998;-80
2024/01/30 09:18:42;;;;;;;;;14.25;12.00;;;;;-146.67;42.47;75839.75;5063262;28;64762;-80
2024/01/30 09:21:07;;;;;;;;;20.25;13.00;;;;;-146.67;42.60;75841.75;5080013;28;62305;-80
2024/01/30 09:23:33;;;;;;;;;15.25;12.00;;;;;-146.67;42.69;75839.75;5081543;28;61962;-80
2024/01/30 09:25:58;;;;;;;;;18.75;12.25;;;;;-146.67;42.39;75833.75;5081141;28;61763;-80
2024/01/30 09:28:24;;;;;;;;;12.75;10.50;;;;;-146.67;42.32;75829.75;5062604;28;63003;-81
2024/01/30 09:30:49;;;;;;;;;17.00;10.75;;;;;-146.67;42.32;75833.75;5081927;28;61676;-81
2024/01/30 09:33:14;;;;;;;;;13.25;10.00;;;;;-146.67;42.42;75841.75;5080482;28;61856;-81
2024/01/30 09:35:40;;;;;;;;;12.50;11.25;;;;;-146.67;42.75;75861.72;5062060;28;62384;-81
2024/01/30 09:38:05;;;;;;;;;13.75;7.25;;;;;-146.67;42.38;75841.75;5062951;28;64031;-80
2024/01/30 09:40:31;;;;;;;;;10.50;10.50;;;;;-146.67;42.27;75839.75;5080270;27;62191;-80
2024/01/30 09:42:59;;;;;;;;;12.50;9.00;;;;;-146.67;42.37;75845.75;5082637;28;61822;-81
2024/01/30 09:45:26;;;;;;;;;11.00;8.25;;;;;-146.67;42.37;75839.75;5067339;28;61874;-80
2024/01/30 09:47:52;;;;;;;;;12.25;9.00;;;;;-146.67;42.23;75835.75;5084325;28;61779;-81
2024/01/30 09:50:19;;;;;;;;;12.25;7.25;;;;;-146.67;42.18;75829.75;5062678;28;61906;-80
2024/01/30 09:52:45;;;;;;;;;11.25;8.50;;;;;-146.67;41.97;75819.78;5097925;27;61653;-81
2024/01/30 09:55:10;;;;;;;;;9.50;9.00;;;;;-146.67;41.94;75805.81;5076973;27;61880;-81
2024/01/30 09:57:36;;;;;;;;;11.75;8.75;;;;;-146.67;41.88;75797.81;5100290;27;62907;-81
2024/01/30 10:00:03;;;;;;;;;13.25;9.00;;;;;-146.67;41.68;75793.81;5085512;28;61826;-80
2024/01/30 10:02:28;;;;;;;;;13.25;10.00;;;;;-146.67;41.60;75779.84;5068519;28;61931;-80
2024/01/30 10:04:54;;;;;;;;;9.00;9.00;;;;;-146.67;41.60;75775.84;5068801;28;62006;-81
2024/01/30 10:07:20;;;;;;;;;11.25;10.00;;;;;-146.67;41.36;75769.84;5086290;28;61897;-82
2024/01/30 10:09:46;;;;;;;;;8.25;7.75;;;;;-146.67;41.37;75765.84;5066754;28;61748;-81
2024/01/30 10:12:12;;;;;;;;;13.00;10.00;;;;;-146.67;41.18;75753.88;5065239;28;62078;-80
2024/01/30 10:14:42;;;;;;;;;6.25;5.00;;;;;-146.67;40.99;75739.91;5066915;28;62217;-80
2024/01/30 10:17:09;;;;;;;;;14.75;8.75;;;;;-146.67;40.89;75719.94;5065850;28;63814;-80
2024/01/30 10:19:35;;;;;;;;;14.25;7.75;;;;;-146.67;40.53;75693.97;5084512;28;61907;-80
2024/01/30 10:22:01;;;;;;;;;7.50;7.50;;;;;-146.67;40.19;75672.00;5084842;28;61786;-80
2024/01/30 10:24:27;;;;;;;;;6.00;6.00;;;;;-146.67;39.83;75664.00;5066878;28;61751;-80
2024/01/30 10:26:53;;;;;;;;;5.25;5.25;;;;;-146.67;40.08;75693.97;5066087;28;63548;-80
2024/01/30 10:29:18;;;;;;;;;4.75;3.75;;;;;-146.67;39.98;75707.94;5066009;28;61826;-80
2024/01/30 10:31:44;;;;;;;;;8.50;5.75;;;;;-146.67;40.20;75707.94;5084937;28;61909;-80
2024/01/30 10:34:09;;;;;;;;;7.75;5.00;;;;;-146.67;40.10;75699.94;5066326;28;62087;-80
2024/01/30 10:36:43;;;;;;;;;5.75;5.00;;;;;-146.67;39.85;75701.94;5082771;28;63382;-80
2024/01/30 10:39:09;;;;;;;;;5.25;5.25;;;;;-146.67;39.84;75687.97;5065825;27;61803;-80
2024/01/30 10:41:43;;;;;;;;;10.25;5.75;;;;;-146.67;39.77;75681.97;5084468;28;61775;-80
2024/01/30 10:44:10;;;;;;;;;8.50;4.75;;;;;-146.67;39.82;75683.97;5066075;28;62117;-80
2024/01/30 10:46:38;;;;;;;;;11.00;8.00;;;;;-146.67;39.58;75697.97;5084238;28;61862;-80
2024/01/30 10:49:04;;;;;;;;;8.00;6.25;;;;;-146.67;39.90;75717.94;5065592;28;61866;-80
2024/01/30 10:51:31;;;;;;;;;7.50;6.00;;;;;-146.67;40.00;75719.94;5084716;28;62005;-80
2024/01/30 10:53:57;;;;;;;;;6.75;4.75;;;;;-146.67;39.97;75727.91;5083393;28;61771;-80
2024/01/30 10:56:23;;;;;;;;;11.75;6.25;;;;;-146.67;40.00;75761.88;5083598;28;61800;-80
2024/01/30 10:58:53;;;;;;;;;13.25;11.00;;;;;-146.67;40.07;75785.81;5065787;28;61850;-80
2024/01/30 11:01:27;;;;;;;;;9.00;8.00;;;;;-146.67;40.22;75795.81;5065929;28;61801;-80